Time;durP1;ratioP1;P1;durP2;ratioP2;P2;SDS_P1;SDS_P2;PMS_P1;PMS_P2;Temp;Humidity;BMP_temperature;BMP_pressure;BME280_temperature;BME280_humidity;BME280_pressure;Samples;Min_cycle;Max_cycle;Signal;HPM_P1;HPM_P2
2022/06/29 00:00:17;;;;;;;4.45;3.10;;;;;;;19.59;56.03;101468.31;5093407;28;20028;-57
2022/06/29 00:02:43;;;;;;;3.95;2.85;;;;;;;19.55;56.15;101474.13;5092631;28;20042;-57
2022/06/29 00:05:13;;;;;;;7.53;3.00;;;;;;;19.44;56.65;101472.38;5093436;28;20012;-57
2022/06/29 00:07:40;;;;;;;5.47;2.90;;;;;;;19.36;56.90;101473.09;5092986;28;20429;-57
2022/06/29 00:10:06;;;;;;;5.90;2.70;;;;;;;19.36;57.12;101470.41;5093263;28;20031;-57
2022/06/29 00:12:32;;;;;;;9.30;3.50;;;;;;;19.40;57.14;101468.28;5074361;28;20028;-56
2022/06/29 00:14:58;;;;;;;6.45;3.30;;;;;;;19.36;57.76;101464.16;5093291;28;20028;-58
2022/06/29 00:17:24;;;;;;;3.75;3.00;;;;;;;19.15;58.04;101465.09;5093172;28;20028;-56
2022/06/29 00:19:50;;;;;;;4.65;3.10;;;;;;;19.00;58.30;101466.44;5056716;28;20380;-56
2022/06/29 00:22:15;;;;;;;7.47;3.90;;;;;;;18.92;58.63;101458.22;5091787;28;20024;-56
2022/06/29 00:24:41;;;;;;;6.68;3.33;;;;;;;18.79;59.16;101453.88;5092324;28;20024;-56
2022/06/29 00:27:08;;;;;;;6.60;3.30;;;;;;;18.80;59.26;101452.06;5092703;28;20027;-56
2022/06/29 00:29:33;;;;;;;7.60;3.53;;;;;;;18.84;59.39;101450.78;5075113;28;20020;-56
2022/06/29 00:31:59;;;;;;;11.13;3.20;;;;;;;18.84;59.27;101445.41;5073202;28;20089;-57
2022/06/29 00:34:27;;;;;;;5.93;3.90;;;;;;;18.79;59.08;101450.34;5071082;28;20045;-56
2022/06/29 00:36:53;;;;;;;4.75;3.40;;;;;;;18.74;59.51;101448.06;5072046;28;20024;-56
2022/06/29 00:39:19;;;;;;;6.53;3.63;;;;;;;18.77;59.53;101452.34;5071592;28;20521;-56
2022/06/29 00:41:46;;;;;;;7.95;3.58;;;;;;;18.68;59.69;101439.59;5072331;28;20102;-56
2022/06/29 00:44:19;;;;;;;6.35;3.67;;;;;;;18.76;59.91;101445.22;5071942;28;20375;-56
2022/06/29 00:46:48;;;;;;;5.95;3.40;;;;;;;18.59;60.04;101442.16;5071602;28;20048;-56
2022/06/29 00:49:18;;;;;;;8.00;3.70;;;;;;;18.51;60.37;101441.97;5071152;28;20066;-57
2022/06/29 00:51:46;;;;;;;6.63;3.50;;;;;;;18.55;60.66;101439.84;5069131;28;20356;-56
2022/06/29 00:54:18;;;;;;;6.50;3.53;;;;;;;18.59;60.34;101441.31;5072412;28;20368;-57
2022/06/29 00:56:44;;;;;;;10.02;3.45;;;;;;;18.43;61.33;101431.00;5072155;28;20032;-56
2022/06/29 00:59:13;;;;;;;4.88;3.50;;;;;;;18.44;60.76;101434.53;5071899;28;20028;-56
2022/06/29 01:01:40;;;;;;;4.30;3.35;;;;;;;18.51;60.63;101435.72;5072099;28;20027;-56
2022/06/29 01:04:08;;;;;;;4.05;3.67;;;;;;;18.51;60.90;101430.34;5070855;28;20433;-57
2022/06/29 01:06:36;;;;;;;9.88;3.38;;;;;;;18.34;61.31;101424.56;5089299;28;20084;-56
2022/06/29 01:09:03;;;;;;;7.53;3.78;;;;;;;18.31;61.41;101419.44;5092213;28;20706;-57
2022/06/29 01:11:29;;;;;;;5.22;3.72;;;;;;;18.26;61.62;101431.59;5086305;28;20029;-56
2022/06/29 01:13:55;;;;;;;6.32;3.97;;;;;;;18.16;62.35;101423.47;5070641;28;20043;-56
2022/06/29 01:16:21;;;;;;;4.80;3.90;;;;;;;18.15;62.23;101424.47;5071777;28;20020;-56
2022/06/29 01:18:47;;;;;;;5.63;3.83;;;;;;;18.14;62.37;101428.97;5071443;28;20029;-56
2022/06/29 01:21:13;;;;;;;7.07;3.63;;;;;;;18.09;62.67;101427.69;5069462;28;20468;-56
2022/06/29 01:23:38;;;;;;;5.38;4.18;;;;;;;18.14;62.21;101428.13;5071027;28;20024;-56
2022/06/29 01:26:05;;;;;;;8.18;4.03;;;;;;;18.11;62.40;101428.38;5071490;28;20506;-56
2022/06/29 01:28:32;;;;;;;6.30;4.00;;;;;;;18.01;62.73;101425.63;5071606;28;20020;-56
2022/06/29 01:30:58;;;;;;;6.25;4.03;;;;;;;18.05;62.80;101420.84;5069328;28;20037;-57
2022/06/29 01:33:24;;;;;;;5.63;3.78;;;;;;;17.90;63.00;101420.31;5078485;28;20036;-56
2022/06/29 01:35:50;;;;;;;5.38;4.05;;;;;;;17.78;63.97;101422.19;5072980;28;20027;-56
2022/06/29 01:38:17;;;;;;;7.88;4.43;;;;;;;17.81;63.49;101416.56;5073758;28;20085;-56
2022/06/29 01:40:42;;;;;;;6.95;4.10;;;;;;;17.70;64.00;101421.94;5091446;28;20364;-57
2022/06/29 01:43:08;;;;;;;4.93;4.13;;;;;;;17.73;63.84;101420.84;5089711;28;20092;-57
2022/06/29 01:45:33;;;;;;;6.85;4.32;;;;;;;17.64;63.95;101407.19;5073550;28;20476;-56
2022/06/29 01:47:59;;;;;;;10.13;4.72;;;;;;;17.61;63.75;101417.34;5056388;28;20030;-56
2022/06/29 01:50:27;;;;;;;6.47;4.22;;;;;;;17.62;64.05;101413.69;5073298;28;20036;-56
2022/06/29 01:52:52;;;;;;;6.95;4.68;;;;;;;17.59;63.58;101408.53;5072476;28;20170;-56
2022/06/29 01:55:20;;;;;;;6.88;4.95;;;;;;;17.40;64.24;101404.72;5091380;28;20110;-56
2022/06/29 01:57:45;;;;;;;5.53;4.88;;;;;;;17.52;64.13;101410.06;5073175;28;20445;-56
2022/06/29 02:00:11;;;;;;;7.35;4.97;;;;;;;17.44;64.23;101414.25;5073255;28;20040;-56
2022/06/29 02:02:37;;;;;;;7.22;4.45;;;;;;;17.48;64.06;101399.56;5090836;28;20038;-56
2022/06/29 02:05:03;;;;;;;8.50;4.80;;;;;;;17.36;64.23;101394.34;5072998;28;20114;-56
2022/06/29 02:07:28;;;;;;;8.20;5.38;;;;;;;17.31;64.37;101393.88;5072565;28;20035;-57
2022/06/29 02:09:54;;;;;;;8.20;5.18;;;;;;;17.25;64.93;101404.13;5056076;28;20073;-56
2022/06/29 02:12:19;;;;;;;7.40;5.10;;;;;;;17.34;64.44;101404.38;5072716;28;20063;-57
2022/06/29 02:14:45;;;;;;;6.97;4.93;;;;;;;17.40;64.40;101399.31;5073250;28;20435;-57
2022/06/29 02:17:13;;;;;;;7.82;5.28;;;;;;;17.13;65.47;101391.72;5053541;28;20510;-56
2022/06/29 02:19:41;;;;;;;8.53;5.60;;;;;;;17.28;65.24;101405.72;5090831;28;20034;-57
2022/06/29 02:22:07;;;;;;;9.40;5.63;;;;;;;17.29;64.97;101404.72;5072650;28;20779;-57
2022/06/29 02:24:32;;;;;;;6.97;5.10;;;;;;;17.24;65.29;101404.28;5072991;28;20028;-58
2022/06/29 02:26:58;;;;;;;7.25;5.50;;;;;;;17.25;65.38;101397.91;5073164;28;20028;-60
2022/06/29 02:29:24;;;;;;;8.70;4.80;;;;;;;17.34;65.54;101402.53;5073350;28;20024;-57
2022/06/29 02:34:44;;;;;;;8.10;5.63;;;;;;;17.40;65.48;101401.16;5089740;28;20047;-56
2022/06/29 02:37:10;;;;;;;10.40;5.45;;;;;;;17.34;65.22;101397.16;5073729;28;20081;-57
2022/06/29 02:39:38;;;;;;;9.25;5.85;;;;;;;17.43;65.19;101398.22;5091016;28;20034;-57
2022/06/29 02:42:04;;;;;;;11.27;5.68;;;;;;;17.40;64.82;101390.41;5090432;28;20028;-56
2022/06/29 02:44:30;;;;;;;8.80;5.90;;;;;;;17.40;64.72;101393.09;5091082;28;20459;-57
2022/06/29 02:46:55;;;;;;;8.80;6.13;;;;;;;17.46;63.62;101388.06;5091103;28;20020;-57
2022/06/29 02:49:21;;;;;;;10.20;5.82;;;;;;;17.49;63.26;101382.41;5090463;28;20032;-56
2022/06/29 02:51:46;;;;;;;9.75;5.60;;;;;;;17.51;63.45;101378.78;5071872;28;20843;-58
2022/06/29 02:54:12;;;;;;;8.77;5.40;;;;;;;17.43;64.53;101377.56;5090731;28;20494;-57
2022/06/29 02:56:38;;;;;;;8.13;5.47;;;;;;;17.43;64.54;101382.94;5090751;28;20074;-56
2022/06/29 02:59:03;;;;;;;7.85;5.20;;;;;;;17.40;64.55;101374.28;5092780;28;20116;-56
2022/06/29 03:01:29;;;;;;;5.93;5.13;;;;;;;17.41;64.35;101376.84;5094230;28;20157;-56
2022/06/29 03:03:55;;;;;;;8.18;5.80;;;;;;;17.36;64.65;101364.78;5076528;28;20028;-57
2022/06/29 03:06:21;;;;;;;9.18;5.30;;;;;;;17.39;64.64;101376.13;5093904;28;20020;-56
2022/06/29 03:08:47;;;;;;;9.18;5.63;;;;;;;17.29;65.00;101377.00;5094553;28;20036;-56
2022/06/29 03:11:13;;;;;;;9.70;5.95;;;;;;;17.23;65.19;101362.22;5093648;28;20039;-56
2022/06/29 03:13:38;;;;;;;7.70;5.75;;;;;;;17.14;65.42;101361.16;5094405;28;20020;-57
2022/06/29 03:16:04;;;;;;;8.88;5.80;;;;;;;17.18;65.26;101365.31;5075982;28;20437;-58
2022/06/29 03:18:30;;;;;;;11.70;6.47;;;;;;;17.18;65.16;101362.63;5094056;28;20032;-56
2022/06/29 03:20:55;;;;;;;7.95;5.38;;;;;;;17.12;65.75;101356.88;5093439;28;20332;-56
2022/06/29 03:23:21;;;;;;;10.18;6.43;;;;;;;17.21;65.30;101362.38;5076254;28;20032;-56
2022/06/29 03:25:47;;;;;;;8.40;5.55;;;;;;;17.10;66.38;101361.56;5075990;28;20039;-56
2022/06/29 03:28:13;;;;;;;9.00;6.00;;;;;;;17.15;66.00;101352.13;5076236;28;20036;-56
2022/06/29 03:30:39;;;;;;;9.65;5.70;;;;;;;17.18;65.84;101354.56;5075649;28;20386;-57
2022/06/29 03:33:04;;;;;;;10.13;6.00;;;;;;;17.17;65.57;101352.84;5093497;28;20060;-56
2022/06/29 03:35:29;;;;;;;10.18;5.90;;;;;;;17.04;66.73;101338.72;5075660;28;20050;-56
2022/06/29 03:37:55;;;;;;;8.35;6.10;;;;;;;16.98;66.39;101339.22;5093794;28;20085;-56
2022/06/29 03:40:21;;;;;;;10.02;6.10;;;;;;;17.02;66.25;101332.59;5075570;28;20059;-56
2022/06/29 03:42:46;;;;;;;6.40;5.43;;;;;;;17.09;66.10;101343.69;5093540;28;20035;-57
2022/06/29 03:45:12;;;;;;;8.85;5.93;;;;;;;17.11;66.42;101339.91;5075748;28;20020;-56
2022/06/29 03:47:38;;;;;;;12.20;6.20;;;;;;;17.08;66.35;101344.69;5058423;28;20432;-57
2022/06/29 03:50:06;;;;;;;8.23;5.55;;;;;;;17.02;66.55;101338.84;5093167;28;20472;-56
2022/06/29 03:52:31;;;;;;;8.27;5.70;;;;;;;17.02;66.71;101338.84;5075557;28;20140;-56
2022/06/29 03:54:57;;;;;;;9.13;6.47;;;;;;;17.00;66.83;101339.94;5093682;28;20505;-57
2022/06/29 03:57:22;;;;;;;9.85;6.20;;;;;;;17.01;66.82;101333.59;5058870;28;20028;-57
2022/06/29 03:59:47;;;;;;;10.57;5.78;;;;;;;16.98;67.11;101329.31;5093184;28;20028;-57
2022/06/29 04:02:13;;;;;;;7.22;6.05;;;;;;;17.04;66.87;101327.97;5074701;28;20044;-57
2022/06/29 04:04:38;;;;;;;9.95;6.10;;;;;;;17.03;66.98;101329.81;5072597;28;20177;-56
2022/06/29 04:07:04;;;;;;;9.63;6.03;;;;;;;17.03;67.01;101328.97;5058256;28;20028;-57
2022/06/29 04:09:31;;;;;;;8.20;6.07;;;;;;;16.98;67.20;101325.78;5056038;28;20029;-57
2022/06/29 04:11:57;;;;;;;7.53;6.07;;;;;;;17.00;67.42;101324.69;5058113;28;20031;-56
2022/06/29 04:14:26;;;;;;;9.20;5.65;;;;;;;16.99;67.92;101327.50;5058592;28;20031;-56
2022/06/29 04:16:54;;;;;;;11.25;6.40;;;;;;;16.99;67.78;101324.81;5092854;28;20023;-56
2022/06/29 04:19:20;;;;;;;7.10;5.70;;;;;;;17.00;68.09;101338.13;5074905;28;20589;-56
2022/06/29 04:21:46;;;;;;;8.27;6.15;;;;;;;16.91;68.52;101325.44;5092658;28;20045;-57
2022/06/29 04:24:12;;;;;;;7.20;5.93;;;;;;;17.02;68.21;101327.22;5074864;28;20390;-56
2022/06/29 04:26:38;;;;;;;11.40;6.45;;;;;;;16.89;68.89;101327.41;5092751;28;20209;-56
2022/06/29 04:29:06;;;;;;;7.00;6.03;;;;;;;17.01;68.33;101331.75;5092244;28;20482;-57
2022/06/29 04:31:34;;;;;;;7.10;6.10;;;;;;;17.12;67.79;101321.94;5092887;28;20389;-57
2022/06/29 04:34:01;;;;;;;11.13;7.43;;;;;;;17.08;67.11;101317.81;5092485;28;20040;-57
2022/06/29 04:36:28;;;;;;;8.52;6.53;;;;;;;17.06;68.85;101326.03;5092607;28;20032;-56
2022/06/29 04:38:54;;;;;;;11.38;6.63;;;;;;;16.97;69.12;101314.19;5092630;28;20024;-56
2022/06/29 04:41:19;;;;;;;9.68;6.68;;;;;;;17.08;68.02;101328.56;5074553;28;20040;-56
2022/06/29 04:43:46;;;;;;;10.48;7.05;;;;;;;17.16;67.52;101316.19;5092379;28;20032;-57
2022/06/29 04:46:21;;;;;;;8.65;6.60;;;;;;;17.22;68.20;101320.22;5092390;28;20019;-56
2022/06/29 04:48:59;;;;;;;8.00;6.82;;;;;;;17.25;68.24;101319.94;5092347;28;20490;-56
2022/06/29 04:51:29;;;;;;;13.15;6.97;;;;;;;17.21;68.59;101323.88;5092441;28;20028;-57
2022/06/29 04:53:56;;;;;;;8.80;6.88;;;;;;;17.36;68.20;101316.38;5092697;28;20081;-56
2022/06/29 04:56:23;;;;;;;10.02;7.38;;;;;;;17.41;66.17;101320.38;5057571;28;20027;-57
2022/06/29 04:58:50;;;;;;;11.25;6.93;;;;;;;17.54;66.06;101319.34;5091539;28;20057;-57
2022/06/29 05:01:16;;;;;;;8.10;6.22;;;;;;;17.54;67.21;101317.50;5073859;28;20024;-57
2022/06/29 05:03:44;;;;;;;10.07;6.85;;;;;;;17.55;66.10;101321.88;5092130;28;20027;-56
2022/06/29 05:06:12;;;;;;;10.15;7.05;;;;;;;17.57;67.23;101319.06;5091451;28;20031;-56
2022/06/29 05:08:38;;;;;;;10.30;7.30;;;;;;;17.67;65.45;101312.75;5073836;28;20028;-56
2022/06/29 05:11:06;;;;;;;10.07;6.72;;;;;;;17.59;66.60;101312.59;5091348;28;20478;-58
2022/06/29 05:13:31;;;;;;;12.68;7.00;;;;;;;17.63;66.59;101318.53;5073646;28;20036;-56
2022/06/29 05:15:57;;;;;;;11.13;6.78;;;;;;;17.65;66.94;101301.28;5057054;28;20035;-57
2022/06/29 05:18:22;;;;;;;10.10;6.50;;;;;;;17.81;65.49;101308.06;5074050;28;20051;-56
2022/06/29 05:20:48;;;;;;;9.43;6.53;;;;;;;17.86;64.83;101305.84;5090503;28;20448;-57
2022/06/29 05:23:13;;;;;;;12.57;6.47;;;;;;;17.97;65.00;101307.59;5057209;28;20047;-56
2022/06/29 05:25:39;;;;;;;8.23;6.05;;;;;;;18.01;65.26;101311.72;5087814;28;20019;-56
2022/06/29 05:28:08;;;;;;;8.90;6.85;;;;;;;18.10;64.62;101310.94;5081221;28;20034;-56
2022/06/29 05:30:34;;;;;;;;;;;;;;;18.24;64.27;101310.56;5074398;28;20054;-56
2022/06/29 05:33:00;;;;;;;8.48;6.28;;;;;;;18.25;64.34;101303.34;5073363;28;20509;-56
2022/06/29 05:35:29;;;;;;;10.77;6.97;;;;;;;18.33;64.66;101307.06;5091886;28;20028;-56
2022/06/29 05:37:55;;;;;;;9.73;6.35;;;;;;;18.25;65.69;101301.50;5091051;28;20050;-57
2022/06/29 05:40:20;;;;;;;8.85;6.32;;;;;;;18.40;65.58;101293.91;5091522;28;20028;-56
2022/06/29 05:42:48;;;;;;;11.60;6.25;;;;;;;18.55;65.28;101297.91;5072735;28;20676;-56
2022/06/29 05:45:13;;;;;;;9.25;6.47;;;;;;;18.65;63.29;101303.34;5091302;28;20040;-57
2022/06/29 05:47:39;;;;;;;10.20;5.80;;;;;;;18.70;64.41;101298.38;5056143;28;20027;-56
2022/06/29 05:50:09;;;;;;;12.40;6.28;;;;;;;18.81;63.45;101286.66;5073465;28;20036;-56
2022/06/29 05:52:35;;;;;;;12.13;6.80;;;;;;;18.91;62.04;101295.59;5090973;28;20413;-56
2022/06/29 05:55:01;;;;;;;10.48;6.22;;;;;;;18.94;62.94;101298.03;5091101;28;20028;-56
2022/06/29 05:57:27;;;;;;;9.57;5.97;;;;;;;19.08;61.79;101293.22;5073047;28;20035;-56
2022/06/29 05:59:53;;;;;;;10.05;5.88;;;;;;;19.20;62.31;101289.38;5055995;28;20111;-56
2022/06/29 06:02:18;;;;;;;7.90;5.80;;;;;;;19.34;61.83;101296.19;5090816;28;20116;-56
2022/06/29 06:04:44;;;;;;;8.63;5.88;;;;;;;19.46;62.75;101298.59;5091134;28;20028;-56
2022/06/29 06:07:10;;;;;;;10.68;6.03;;;;;;;19.57;62.43;101299.44;5053564;28;20038;-56
2022/06/29 06:09:38;;;;;;;14.55;5.88;;;;;;;19.65;60.87;101305.00;5073034;28;20070;-56
2022/06/29 06:12:05;;;;;;;12.75;5.63;;;;;;;19.81;59.69;101305.25;5072631;28;20032;-56
2022/06/29 06:14:33;;;;;;;8.25;5.20;;;;;;;19.90;58.73;101300.81;5073055;28;20031;-57
2022/06/29 06:16:59;;;;;;;10.43;4.93;;;;;;;20.01;58.42;101297.94;5090467;28;20024;-57
2022/06/29 06:19:27;;;;;;;10.00;4.60;;;;;;;20.05;57.94;101290.41;5055107;28;20024;-57
2022/06/29 06:21:52;;;;;;;13.02;4.60;;;;;;;20.11;58.08;101306.84;5072446;28;20030;-57
2022/06/29 06:24:18;;;;;;;8.18;4.65;;;;;;;20.17;59.41;101302.72;5055766;28;20089;-57
2022/06/29 06:26:43;;;;;;;9.05;4.70;;;;;;;20.33;57.58;101302.09;5072210;28;20107;-57
2022/06/29 06:29:09;;;;;;;7.28;4.43;;;;;;;20.41;56.66;101299.47;5072892;28;20104;-56
2022/06/29 06:31:36;;;;;;;6.43;4.18;;;;;;;20.55;58.33;101309.81;5056328;28;20067;-56
2022/06/29 06:34:02;;;;;;;7.93;4.10;;;;;;;20.59;55.35;101300.44;5075231;28;20044;-57
2022/06/29 06:36:27;;;;;;;5.93;3.47;;;;;;;20.62;55.21;101302.81;5094578;28;20036;-56
2022/06/29 06:38:53;;;;;;;6.93;3.13;;;;;;;20.79;55.14;101303.00;5076207;28;20111;-57
2022/06/29 06:41:22;;;;;;;6.47;3.45;;;;;;;20.85;56.69;101303.25;5094821;28;20112;-56
2022/06/29 06:43:48;;;;;;;7.07;3.10;;;;;;;20.96;57.56;101299.47;5077364;28;20457;-56
2022/06/29 06:46:14;;;;;;;6.53;3.10;;;;;;;21.08;53.96;101297.38;5094172;28;20383;-56
2022/06/29 06:48:45;;;;;;;9.05;3.65;;;;;;;21.14;53.45;101304.03;5059514;28;20122;-56
2022/06/29 06:51:12;;;;;;;10.20;3.65;;;;;;;21.21;52.01;101310.53;5094300;28;20115;-56
2022/06/29 06:53:38;;;;;;;8.55;3.35;;;;;;;21.25;52.17;101298.41;5094735;28;20032;-56
2022/06/29 06:56:06;;;;;;;7.10;3.58;;;;;;;21.37;51.17;101305.28;5094120;28;20020;-56
2022/06/29 06:58:32;;;;;;;10.65;3.50;;;;;;;21.41;52.22;101295.84;5094822;28;20450;-56
2022/06/29 07:01:00;;;;;;;9.02;3.33;;;;;;;21.57;51.83;101305.13;5094163;28;20069;-56
2022/06/29 07:03:27;;;;;;;5.57;3.63;;;;;;;21.68;51.98;101302.16;5094539;28;20039;-56
2022/06/29 07:05:53;;;;;;;7.32;3.00;;;;;;;21.71;51.04;101299.16;5076281;28;20024;-56
2022/06/29 07:08:19;;;;;;;10.07;3.50;;;;;;;21.88;50.67;101300.06;5059537;28;20367;-56
2022/06/29 07:10:47;;;;;;;9.85;3.20;;;;;;;21.94;51.13;101311.16;5093656;28;20030;-57
2022/06/29 07:13:13;;;;;;;4.95;2.80;;;;;;;22.02;49.74;101288.66;5059058;28;20028;-56
2022/06/29 07:15:38;;;;;;;5.88;3.22;;;;;;;22.08;48.75;101293.44;5094195;28;20493;-56
2022/06/29 07:18:04;;;;;;;5.50;3.00;;;;;;;22.09;48.73;101292.44;5059515;28;20042;-56
2022/06/29 07:20:30;;;;;;;3.35;2.45;;;;;;;22.19;48.14;101297.75;5093838;28;20024;-57
2022/06/29 07:22:56;;;;;;;7.10;2.88;;;;;;;22.14;47.10;101300.06;5093986;28;20024;-56
2022/06/29 07:25:21;;;;;;;5.85;2.60;;;;;;;22.32;47.78;101290.00;5075796;28;20043;-56
2022/06/29 07:27:50;;;;;;;8.95;3.20;;;;;;;22.46;46.49;101304.81;5075856;28;20039;-56
2022/06/29 07:30:16;;;;;;;6.57;2.83;;;;;;;22.70;47.37;101297.78;5094190;28;20048;-56
2022/06/29 07:32:44;;;;;;;5.18;2.80;;;;;;;22.78;46.47;101293.25;5091576;28;20024;-57
2022/06/29 07:35:09;;;;;;;6.17;2.40;;;;;;;22.83;46.05;101293.59;5074391;28;20054;-57
2022/06/29 07:37:35;;;;;;;4.40;2.42;;;;;;;22.94;46.86;101297.84;5091938;28;20036;-57
2022/06/29 07:40:01;;;;;;;6.68;2.78;;;;;;;23.08;46.74;101294.50;5074153;28;20027;-57
2022/06/29 07:42:27;;;;;;;4.25;2.15;;;;;;;23.20;50.04;101295.03;5074811;28;20024;-57
2022/06/29 07:44:52;;;;;;;4.78;2.03;;;;;;;23.31;45.55;101291.13;5074382;28;20119;-57
2022/06/29 07:47:18;;;;;;;6.90;2.40;;;;;;;23.43;44.84;101289.78;5092290;28;20036;-57
2022/06/29 07:49:44;;;;;;;12.13;2.47;;;;;;;23.43;45.25;101283.50;5074184;28;20024;-57
2022/06/29 07:52:09;;;;;;;3.10;2.17;;;;;;;23.46;45.98;101283.16;5091221;28;20550;-57
2022/06/29 07:54:37;;;;;;;9.18;2.17;;;;;;;23.64;44.92;101282.97;5074375;28;20040;-57
2022/06/29 07:57:03;;;;;;;4.75;2.20;;;;;;;23.73;44.69;101277.38;5092220;28;20016;-57
2022/06/29 07:59:31;;;;;;;4.82;2.28;;;;;;;23.77;44.12;101284.19;5092395;28;20402;-57
2022/06/29 08:01:56;;;;;;;3.15;2.00;;;;;;;23.77;43.59;101277.91;5092626;28;20479;-57
2022/06/29 08:04:22;;;;;;;5.80;2.20;;;;;;;23.90;43.33;101278.19;5057483;28;20038;-57
2022/06/29 08:06:47;;;;;;;3.53;1.77;;;;;;;24.09;43.09;101273.38;5091596;28;20034;-57
2022/06/29 08:09:14;;;;;;;3.58;1.75;;;;;;;24.18;41.69;101278.66;5055359;28;20036;-57
2022/06/29 08:11:39;;;;;;;6.47;2.15;;;;;;;24.16;42.32;101280.69;5091345;28;20024;-57
2022/06/29 08:14:04;;;;;;;3.15;1.92;;;;;;;24.33;42.12;101280.63;5073848;28;20056;-57
2022/06/29 08:16:30;;;;;;;6.43;1.85;;;;;;;24.54;41.68;101280.91;5073710;28;20039;-57
2022/06/29 08:18:55;;;;;;;7.90;2.65;;;;;;;24.68;41.75;101282.88;5073707;28;20040;-57
2022/06/29 08:21:21;;;;;;;5.35;1.92;;;;;;;24.71;41.44;101278.94;5056176;28;20032;-57
2022/06/29 08:23:48;;;;;;;7.05;1.58;;;;;;;24.84;41.96;101275.63;5091918;28;20565;-57
2022/06/29 08:26:14;;;;;;;6.15;2.10;;;;;;;24.94;41.56;101273.50;5091853;28;20472;-57
2022/06/29 08:28:39;;;;;;;5.15;1.77;;;;;;;24.98;41.93;101274.84;5092105;28;20028;-57
2022/06/29 08:31:06;;;;;;;2.45;1.60;;;;;;;25.12;42.34;101268.63;5073500;28;20035;-59
2022/06/29 08:33:31;;;;;;;3.05;1.50;;;;;;;25.16;40.86;101269.13;5031270;28;1209679;-58
2022/06/29 08:35:57;;;;;;;9.38;1.65;;;;;;;25.15;39.35;101270.16;5097482;28;20122;-57
2022/06/29 08:38:22;;;;;;;4.40;1.75;;;;;;;25.18;40.09;101271.66;5113366;28;20027;-58
2022/06/29 08:40:48;;;;;;;6.18;2.05;;;;;;;25.24;40.82;101257.34;5102728;28;20024;-58
2022/06/29 08:43:19;;;;;;;3.85;1.73;;;;;;;25.25;40.49;101265.31;5092710;28;20024;-57
2022/06/29 08:45:47;;;;;;;5.38;1.55;;;;;;;25.41;40.32;101261.59;5092494;28;20077;-58
2022/06/29 08:48:13;;;;;;;2.85;1.50;;;;;;;25.54;41.15;101260.97;5074333;28;20024;-58
2022/06/29 08:50:41;;;;;;;3.83;1.52;;;;;;;25.45;40.72;101262.94;5091630;28;20054;-58
2022/06/29 08:53:10;;;;;;;3.85;1.45;;;;;;;25.46;40.06;101263.78;5074401;28;20029;-59
2022/06/29 08:55:42;;;;;;;4.00;1.50;;;;;;;25.42;43.12;101246.13;5091707;28;20082;-58
2022/06/29 08:58:13;;;;;;;3.65;2.15;;;;;;;25.57;40.64;101269.63;5074177;28;20047;-57
2022/06/29 09:00:39;;;;;;;7.30;1.63;;;;;;;25.65;41.02;101257.81;5092764;28;20028;-57
2022/06/29 09:03:04;;;;;;;7.13;1.85;;;;;;;25.61;39.90;101265.47;5039262;28;20113;-57
2022/06/29 09:05:33;;;;;;;4.20;1.77;;;;;;;25.62;41.47;101266.34;5073939;28;20057;-58
2022/06/29 09:07:59;;;;;;;4.72;1.70;;;;;;;25.78;40.54;101259.88;5091728;28;20028;-57
2022/06/29 09:10:26;;;;;;;2.83;2.00;;;;;;;25.96;39.44;101257.66;5092170;28;20540;-58
2022/06/29 09:12:57;;;;;;;4.00;1.90;;;;;;;26.27;39.44;101259.34;5092097;28;20031;-58
2022/06/29 09:15:34;;;;;;;5.15;1.50;;;;;;;26.25;42.22;101262.25;5074710;28;20028;-58
2022/06/29 09:18:01;;;;;;;5.90;1.70;;;;;;;26.24;40.84;101265.19;5091889;28;20034;-57
2022/06/29 09:20:41;;;;;;;2.92;1.55;;;;;;;26.27;37.51;101253.91;5091476;28;20499;-58
2022/06/29 09:23:09;;;;;;;4.53;1.60;;;;;;;26.34;38.01;101265.72;5090271;28;20423;-58
2022/06/29 09:25:39;;;;;;;3.25;1.65;;;;;;;26.36;36.57;101252.75;5073607;28;20032;-58
2022/06/29 09:28:18;;;;;;;3.30;1.10;;;;;;;26.60;38.31;101261.66;5057517;28;20032;-58
2022/06/29 09:30:44;;;;;;;1.58;1.30;;;;;;;26.66;35.96;101253.53;5091468;28;20103;-58
2022/06/29 09:33:09;;;;;;;2.97;1.67;;;;;;;26.83;36.73;101251.44;5072975;28;20120;-57
2022/06/29 09:35:37;;;;;;;1.50;1.23;;;;;;;26.83;35.39;101254.16;5073396;28;20036;-58
2022/06/29 09:38:20;;;;;;;3.30;1.20;;;;;;;27.03;36.38;101257.09;5090833;28;20031;-57
2022/06/29 09:41:10;;;;;;;4.50;1.60;;;;;;;27.03;36.12;101256.22;5091768;28;20059;-58
2022/06/29 09:43:40;;;;;;;6.03;1.55;;;;;;;27.16;35.85;101257.25;5089470;28;20031;-58
2022/06/29 09:46:07;;;;;;;3.25;1.40;;;;;;;27.15;35.75;101255.56;5091538;28;20016;-57
2022/06/29 09:48:38;;;;;;;2.47;1.45;;;;;;;27.34;36.05;101254.03;5091254;28;20522;-57
2022/06/29 09:51:30;;;;;;;4.30;1.50;;;;;;;27.46;34.55;101251.59;5091257;28;20063;-58
2022/06/29 09:53:57;;;;;;;3.35;1.40;;;;;;;27.68;34.69;101244.22;5091102;28;20038;-57
2022/06/29 09:56:31;;;;;;;5.10;1.60;;;;;;;27.73;35.26;101244.44;5091460;28;20398;-58
2022/06/29 09:59:00;;;;;;;3.30;1.40;;;;;;;27.94;36.91;101248.19;5073620;28;20378;-58
2022/06/29 10:04:12;;;;;;;2.47;1.40;;;;;;;28.10;34.44;101244.28;5090805;28;20031;-58
2022/06/29 10:06:41;;;;;;;1.90;1.10;;;;;;;28.04;32.22;101248.66;5090781;28;20046;-58
2022/06/29 10:09:07;;;;;;;4.88;1.38;;;;;;;28.35;33.47;101247.31;5091317;28;20030;-58
2022/06/29 10:14:59;;;;;;;5.40;1.48;;;;;;;28.19;32.94;101245.78;5091093;28;20374;-58
2022/06/29 10:17:41;;;;;;;2.70;1.40;;;;;;;28.61;33.54;101241.97;5091293;28;20020;-58
2022/06/29 10:20:28;;;;;;;2.83;1.30;;;;;;;28.71;33.41;101244.34;5091317;28;20278;-57
2022/06/29 10:22:54;;;;;;;3.95;1.40;;;;;;;28.79;31.34;101238.66;5090967;28;20032;-58
2022/06/29 10:25:27;;;;;;;2.95;1.48;;;;;;;28.90;33.96;101235.31;5090625;28;20031;-57
2022/06/29 10:28:20;;;;;;;3.28;1.40;;;;;;;29.04;32.03;101235.38;5072433;28;20475;-58
2022/06/29 10:30:47;;;;;;;2.75;1.58;;;;;;;29.06;31.93;101223.16;5071858;28;20024;-58
2022/06/29 10:33:33;;;;;;;2.42;1.30;;;;;;;29.18;31.65;101229.69;5085699;28;20552;-58
2022/06/29 10:36:06;;;;;;;2.13;1.40;;;;;;;29.11;30.53;101231.56;5070939;28;20131;-58
2022/06/29 10:38:57;;;;;;;3.05;1.52;;;;;;;29.15;31.94;101221.88;5088403;28;20036;-58
2022/06/29 10:44:07;;;;;;;1.23;1.10;;;;;;;28.65;30.83;101221.38;5090018;28;20042;-58
2022/06/29 10:46:56;;;;;;;9.90;1.60;;;;;;;28.44;31.73;101219.63;5089855;28;20024;-59
2022/06/29 10:49:22;;;;;;;1.98;1.30;;;;;;;27.99;32.57;101201.94;5089713;28;20099;-62
2022/06/29 10:51:50;;;;;;;4.90;1.33;;;;;;;27.90;33.80;101200.41;5089194;28;20110;-63
2022/06/29 10:54:30;;;;;;;2.95;1.50;;;;;;;27.93;34.25;101200.84;5090646;28;20367;-61
2022/06/29 10:56:56;;;;;;;4.78;1.23;;;;;;;27.91;34.17;101202.94;5072221;28;20028;-60
2022/06/29 10:59:39;;;;;;;1.85;1.25;;;;;;;27.93;34.32;101198.13;5090371;28;20035;-59
2022/06/29 11:02:13;;;;;;;4.10;1.80;;;;;;;27.76;35.19;101194.81;5089188;28;20111;-61
2022/06/29 11:04:40;;;;;;;2.50;1.38;;;;;;;27.52;34.85;101198.06;5055352;28;20049;-65
2022/06/29 11:12:48;;;;;;;3.60;1.40;;;;;;;27.39;36.12;101186.00;5089524;28;20097;-63
2022/06/29 11:17:59;;;;;;;3.53;1.60;;;;;;;27.54;36.12;101195.97;5090995;28;20055;-62
2022/06/29 11:20:25;;;;;;;4.32;1.50;;;;;;;27.65;34.66;101189.94;5075147;28;20032;-64
2022/06/29 11:22:52;;;;;;;5.30;1.65;;;;;;;27.35;35.60;101170.19;5093361;28;20028;-62
2022/06/29 11:25:18;;;;;;;7.07;2.05;;;;;;;27.50;35.51;101194.66;5092753;28;20043;-60
2022/06/29 11:27:44;;;;;;;3.80;1.50;;;;;;;27.36;36.07;101189.13;5074864;28;20035;-61
2022/06/29 11:30:18;;;;;;;4.32;1.38;;;;;;;27.39;35.89;101182.41;5079894;28;20035;-63
2022/06/29 11:32:46;;;;;;;2.40;1.45;;;;;;;27.41;36.70;101185.78;5090648;28;20121;-62
2022/06/29 11:35:17;;;;;;;5.05;1.65;;;;;;;27.31;35.18;101174.38;5092755;28;20086;-60
2022/06/29 11:37:47;;;;;;;2.65;1.70;;;;;;;27.42;34.88;101178.44;5092765;28;20035;-59
2022/06/29 11:40:13;;;;;;;3.55;1.40;;;;;;;27.34;35.24;101174.81;5074351;28;20375;-68
2022/06/29 11:45:34;;;;;;;4.53;1.42;;;;;;;27.37;35.98;101176.31;5093281;28;20031;-59
2022/06/29 11:48:00;;;;;;;2.38;1.40;;;;;;;27.33;36.05;101172.28;5093621;28;20063;-63